Time;durP1;ratioP1;P1;durP2;ratioP2;P2;SDS_P1;SDS_P2;PMS_P1;PMS_P2;Temp;Humidity;BMP_temperature;BMP_pressure;BME280_temperature;BME280_humidity;BME280_pressure;Samples;Min_cycle;Max_cycle;Signal;HPM_P1;HPM_P2
2021/10/27 00:01:31;;;;;;;21.20;17.87;;;;;;;7.97;100.00;101052.56;21068779;28;20227;-67
2021/10/27 00:11:36;;;;;;;18.37;16.17;;;;;;;7.90;100.00;101067.88;21068710;28;20229;-67
2021/10/27 00:21:40;;;;;;;18.73;16.70;;;;;;;7.65;100.00;101083.09;21066063;28;20616;-67
2021/10/27 00:31:45;;;;;;;21.87;17.43;;;;;;;7.60;100.00;101072.66;21068434;28;20600;-66
2021/10/27 00:41:48;;;;;;;20.20;17.53;;;;;;;7.61;100.00;101081.50;21068422;28;20611;-67
2021/10/27 00:51:53;;;;;;;20.17;17.90;;;;;;;7.51;100.00;101081.84;21081851;28;20220;-66
2021/10/27 01:01:58;;;;;;;20.07;17.80;;;;;;;7.22;100.00;101074.16;21081952;28;20255;-66
2021/10/27 01:12:04;;;;;;;19.90;17.40;;;;;;;6.94;100.00;101078.78;21080349;28;20233;-67
2021/10/27 01:22:09;;;;;;;22.47;19.13;;;;;;;6.68;100.00;101066.44;21079714;28;20315;-66
2021/10/27 01:32:21;;;;;;;23.03;18.67;;;;;;;6.60;100.00;101082.66;21079383;28;20230;-67
2021/10/27 01:42:26;;;;;;;21.73;17.10;;;;;;;6.39;100.00;101094.03;21078295;28;20636;-67
2021/10/27 01:52:30;;;;;;;23.67;17.77;;;;;;;6.39;100.00;101096.69;21077636;28;20306;-67
2021/10/27 02:02:35;;;;;;;25.83;21.07;;;;;;;6.49;100.00;101100.72;21076565;28;20250;-67
2021/10/27 02:12:40;;;;;;;23.33;18.90;;;;;;;6.74;100.00;101104.25;21075822;28;20227;-67
2021/10/27 02:22:45;;;;;;;25.63;20.73;;;;;;;6.54;100.00;101101.41;21075045;28;20235;-67
2021/10/27 02:32:48;;;;;;;27.70;22.07;;;;;;;6.46;100.00;101103.47;21074471;28;20718;-67
2021/10/27 02:42:54;;;;;;;25.17;20.23;;;;;;;6.37;100.00;101109.09;21073192;28;20573;-67
2021/10/27 02:52:57;;;;;;;22.90;19.47;;;;;;;6.13;100.00;101106.38;21073245;28;20237;-67
2021/10/27 03:03:02;;;;;;;25.07;20.37;;;;;;;5.92;100.00;101117.66;21072494;28;20258;-67
2021/10/27 03:13:06;;;;;;;23.13;19.13;;;;;;;5.84;100.00;101124.97;21071115;28;20222;-67
2021/10/27 03:23:11;;;;;;;21.47;17.57;;;;;;;5.67;100.00;101133.44;21071204;28;20230;-66
2021/10/27 03:33:15;;;;;;;19.50;15.53;;;;;;;5.43;100.00;101137.69;21070605;28;20308;-66
2021/10/27 03:43:20;;;;;;;22.10;16.13;;;;;;;5.20;100.00;101141.94;21069725;28;20257;-66
2021/10/27 03:53:23;;;;;;;21.57;15.80;;;;;;;5.00;100.00;101151.31;21069387;28;20241;-66
2021/10/27 04:03:28;;;;;;;20.10;15.27;;;;;;;4.89;100.00;101144.59;21069278;28;20249;-66
2021/10/27 04:13:33;;;;;;;21.87;16.33;;;;;;;4.84;100.00;101147.34;21068733;28;20228;-66
2021/10/27 04:23:39;;;;;;;26.93;19.23;;;;;;;4.88;100.00;101151.66;21079885;28;20317;-66
2021/10/27 04:33:42;;;;;;;27.80;19.40;;;;;;;4.92;100.00;101155.97;21081408;28;20326;-66
2021/10/27 04:43:47;;;;;;;26.93;20.57;;;;;;;4.93;100.00;101160.34;21082045;28;20229;-66
2021/10/27 04:53:51;;;;;;;23.77;18.93;;;;;;;4.92;100.00;101153.31;21082211;28;20271;-66
2021/10/27 05:03:56;;;;;;;27.17;20.10;;;;;;;4.91;100.00;101143.63;21081663;28;20749;-66
2021/10/27 05:14:00;;;;;;;24.63;17.93;;;;;;;4.92;100.00;101163.03;21074979;28;20365;-66
2021/10/27 05:24:06;;;;;;;26.93;20.07;;;;;;;4.98;100.00;101173.41;21023800;28;20229;-66
2021/10/27 05:34:11;;;;;;;28.83;22.07;;;;;;;5.08;100.00;101159.88;21067788;28;20242;-67
2021/10/27 05:44:18;;;;;;;23.93;17.47;;;;;;;5.20;100.00;101173.69;21023060;28;20230;-67
2021/10/27 06:04:45;;;;;;;24.23;18.90;;;;;;;5.68;100.00;101192.53;21074937;28;20613;-67
2021/10/27 06:14:49;;;;;;;22.57;17.10;;;;;;;5.98;100.00;101196.94;21074831;28;20279;-67
2021/10/27 06:24:54;;;;;;;172.93;37.50;;;;;;;6.39;100.00;101198.28;21075326;28;20231;-67
2021/10/27 06:35:01;;;;;;;80.57;25.23;;;;;;;6.95;100.00;101213.16;21074791;28;20768;-68
2021/10/27 06:55:32;;;;;;;22.40;19.43;;;;;;;7.30;100.00;101241.97;21073399;28;20223;-67
2021/10/27 07:05:55;;;;;;;21.57;19.30;;;;;;;8.14;100.00;101238.78;21072658;28;20611;-67
2021/10/27 07:16:01;;;;;;;25.90;23.13;;;;;;;9.16;100.00;101246.09;21071902;28;20695;-68
2021/10/27 07:26:06;;;;;;;18.67;16.77;;;;;;;9.97;100.00;101245.06;21071024;28;20238;-68
2021/10/27 07:36:24;;;;;;;18.90;16.90;;;;;;;10.42;100.00;101253.56;21070503;28;20233;-68
2021/10/27 07:46:29;;;;;;;25.17;17.87;;;;;;;10.78;100.00;101261.53;21070356;28;20305;-67
2021/10/27 07:56:34;;;;;;;16.70;15.00;;;;;;;11.12;100.00;101255.34;21080848;28;20785;-67
2021/10/27 08:06:40;;;;;;;15.70;14.10;;;;;;;11.36;100.00;101255.88;21086644;28;20304;-68
2021/10/27 08:16:44;;;;;;;17.23;15.40;;;;;;;12.11;100.00;101247.38;21086074;28;20584;-67
2021/10/27 08:26:53;;;;;;;15.80;14.23;;;;;;;12.46;100.00;101258.75;21084787;28;20233;-67
2021/10/27 08:36:57;;;;;;;14.43;13.00;;;;;;;12.61;100.00;101252.53;21082743;28;20244;-68
2021/10/27 08:47:03;;;;;;;25.10;13.53;;;;;;;12.61;100.00;101251.66;21083588;28;20307;-67
2021/10/27 08:57:09;;;;;;;49.40;17.37;;;;;;;13.05;100.00;101251.72;21082241;28;20225;-67
2021/10/27 09:07:21;;;;;;;24.83;14.03;;;;;;;13.56;100.00;101241.50;21079887;28;20237;-68
2021/10/27 09:38:57;;;;;;;11.50;10.30;;;;;;;15.12;100.00;101236.59;21078674;28;20240;-68
2021/10/27 10:09:51;;;;;;;12.97;11.20;;;;;;;14.28;100.00;101252.06;21077036;28;20218;-68
2021/10/27 10:19:55;;;;;;;13.53;11.57;;;;;;;13.61;100.00;101247.44;21075102;28;20229;-68
2021/10/27 10:30:05;;;;;;;11.57;10.40;;;;;;;13.62;100.00;101228.59;21075279;28;20632;-68
2021/10/27 11:01:51;;;;;;;32.43;16.87;;;;;;;14.33;100.00;101223.13;21072477;28;20775;-68
2021/10/27 11:43:19;;;;;;;8.70;7.80;;;;;;;15.52;100.00;101198.00;21146800;28;20278;-68
2021/10/27 11:53:27;;;;;;;8.90;7.93;;;;;;;15.74;100.00;101211.66;21135271;28;20224;-69
2021/10/27 12:03:36;;;;;;;6.80;6.20;;;;;;;15.87;95.07;101211.66;21151728;28;20221;-68
2021/10/27 12:14:00;;;;;;;6.20;5.60;;;;;;;16.23;100.00;101205.41;21153361;28;20254;-68
2021/10/27 12:24:04;;;;;;;7.77;6.23;;;;;;;15.81;100.00;101210.28;21124003;28;20232;-67
2021/10/27 12:34:27;;;;;;;7.30;6.30;;;;;;;15.58;91.98;101192.22;21133976;28;20242;-67
2021/10/27 12:44:30;;;;;;;8.37;6.23;;;;;;;15.57;100.00;101195.88;21163326;28;20282;-67
2021/10/27 12:54:35;;;;;;;27.83;7.13;;;;;;;15.25;92.92;101180.13;21166981;28;20281;-68
2021/10/27 13:04:45;;;;;;;5.40;4.87;;;;;;;15.23;100.00;101160.56;21166364;28;20236;-68
2021/10/27 13:35:36;;;;;;;17.03;6.63;;;;;;;15.01;94.43;101187.22;21163195;28;20681;-68
2021/10/27 13:45:46;;;;;;;6.53;5.30;;;;;;;14.75;100.00;101197.91;21163104;28;20282;-68
2021/10/27 14:06:15;;;;;;;6.50;5.50;;;;;;;14.45;100.00;101183.00;21140561;28;20282;-68
2021/10/27 15:29:17;;;;;;;6.20;5.17;;;;;;;13.37;100.00;101158.69;21053672;28;20229;-69
2021/10/27 16:00:09;;;;;;;8.13;5.83;;;;;;;13.08;100.00;101159.56;21079153;28;20329;-70
2021/10/27 16:10:15;;;;;;;7.47;5.60;;;;;;;13.05;100.00;101160.59;21080034;28;20257;-71
2021/10/27 16:20:20;;;;;;;7.57;5.97;;;;;;;13.00;100.00;101162.72;21094083;28;20324;-71
2021/10/27 16:30:24;;;;;;;10.80;7.10;;;;;;;12.90;100.00;101167.78;21095415;28;20225;-71
2021/10/27 16:40:29;;;;;;;11.50;9.43;;;;;;;12.83;100.00;101169.09;21075508;28;20896;-71
2021/10/27 16:50:35;;;;;;;9.77;7.33;;;;;;;12.65;100.00;101170.22;21059486;28;20243;-71
2021/10/27 17:00:40;;;;;;;6.83;5.97;;;;;;;12.52;100.00;101194.16;21075266;28;20320;-71
2021/10/27 17:10:46;;;;;;;8.47;6.60;;;;;;;12.35;100.00;101183.56;21060767;28;20237;-71
2021/10/27 17:20:51;;;;;;;7.97;6.50;;;;;;;12.16;100.00;101191.78;21062275;28;21136;-71
2021/10/27 17:30:58;;;;;;;9.30;7.23;;;;;;;12.21;100.00;101215.59;21056454;28;20269;-68
2021/10/27 17:41:03;;;;;;;10.80;8.13;;;;;;;12.32;100.00;101215.84;21145002;28;20701;-67
2021/10/27 17:51:16;;;;;;;11.20;9.00;;;;;;;12.42;100.00;101217.06;21127676;28;20241;-67
2021/10/27 18:01:22;;;;;;;10.47;8.60;;;;;;;12.47;100.00;101201.59;21131684;28;20839;-68
2021/10/27 18:11:28;;;;;;;11.50;9.07;;;;;;;12.49;100.00;101210.41;21095236;28;20309;-70
2021/10/27 18:21:47;;;;;;;10.63;9.07;;;;;;;12.49;100.00;101199.69;21126925;28;20236;-67
2021/10/27 18:42:17;;;;;;;10.00;8.60;;;;;;;12.39;100.00;101193.16;21117556;28;20240;-72
2021/10/27 18:52:28;;;;;;;9.47;8.37;;;;;;;12.41;100.00;101193.94;21138909;28;20236;-71
2021/10/27 19:02:42;;;;;;;10.73;9.03;;;;;;;12.46;100.00;101189.16;21127444;28;20225;-71
2021/10/27 19:12:50;;;;;;;10.70;8.70;;;;;;;12.53;100.00;101195.88;21141652;28;20224;-70
2021/10/27 19:22:57;;;;;;;9.07;7.67;;;;;;;12.61;100.00;101215.03;21119757;28;20289;-70
2021/10/27 19:33:20;;;;;;;10.03;7.87;;;;;;;12.69;100.00;101216.38;21141341;28;20791;-70
2021/10/27 20:14:49;;;;;;;8.00;7.13;;;;;;;12.90;100.00;101228.53;21141298;28;20269;-65
2021/10/27 20:56:11;;;;;;;10.27;8.97;;;;;;;12.74;100.00;101263.38;21212332;28;20232;-65
2021/10/27 21:16:38;;;;;;;10.13;8.87;;;;;;;12.59;100.00;101291.91;21202831;27;20800;-67
2021/10/27 21:26:44;;;;;;;10.20;8.87;;;;;;;12.56;100.00;101292.06;21237895;27;20743;-65
2021/10/27 21:47:12;;;;;;;11.30;8.33;;;;;;;12.49;100.00;101261.25;21235936;27;20272;-64
2021/10/27 21:57:19;;;;;;;8.70;7.77;;;;;;;12.50;100.00;101275.50;21212226;27;20869;-66
2021/10/27 22:07:25;;;;;;;9.70;7.60;;;;;;;12.48;100.00;101277.41;21199063;27;20775;-66
2021/10/27 22:17:28;;;;;;;8.27;7.47;;;;;;;12.48;100.00;101293.47;21216725;27;20223;-68
2021/10/27 22:27:33;;;;;;;8.63;7.27;;;;;;;12.44;100.00;101274.03;21208478;27;20251;-71
2021/10/27 22:37:38;;;;;;;9.30;7.97;;;;;;;12.42;100.00;101272.41;21221077;27;20492;-69
2021/10/27 22:47:44;;;;;;;8.77;7.87;;;;;;;12.44;100.00;101268.69;21201087;27;20251;-64
2021/10/27 22:57:48;;;;;;;9.20;8.20;;;;;;;12.46;100.00;101258.75;21229208;27;21273;-66
2021/10/27 23:07:57;;;;;;;8.07;7.33;;;;;;;12.49;100.00;101273.78;21190158;27;20254;-68
2021/10/27 23:49:27;;;;;;;7.80;7.00;;;;;;;12.41;100.00;101286.75;21176359;27;20562;-65
